sensor_id;sensor_type;location;lat;lon;timestamp;pressure;altitude;pressure_sealevel;temperature
65738;BMP280;52478;51.844;6.582;2023-08-06T00:00:27;100203.38;;;24.77
65738;BMP280;52478;51.844;6.582;2023-08-06T00:02:53;100201.84;;;24.76
65738;BMP280;52478;51.844;6.582;2023-08-06T00:05:20;100205.25;;;24.74
65738;BMP280;52478;51.844;6.582;2023-08-06T00:07:47;100198.91;;;24.74
65738;BMP280;52478;51.844;6.582;2023-08-06T00:10:15;100204.50;;;24.74
65738;BMP280;52478;51.844;6.582;2023-08-06T00:12:41;100200.22;;;24.73
65738;BMP280;52478;51.844;6.582;2023-08-06T00:15:09;100195.94;;;24.72
65738;BMP280;52478;51.844;6.582;2023-08-06T00:17:36;100197.22;;;24.71
65738;BMP280;52478;51.844;6.582;2023-08-06T00:20:03;100192.94;;;24.70
65738;BMP280;52478;51.844;6.582;2023-08-06T00:22:31;100183.63;;;24.67
65738;BMP280;52478;51.844;6.582;2023-08-06T00:24:58;100187.91;;;24.68
65738;BMP280;52478;51.844;6.582;2023-08-06T00:27:25;100191.44;;;24.69
65738;BMP280;52478;51.844;6.582;2023-08-06T00:29:52;100184.16;;;24.66
65738;BMP280;52478;51.844;6.582;2023-08-06T00:32:19;100190.53;;;24.66
65738;BMP280;52478;51.844;6.582;2023-08-06T00:34:46;100174.47;;;24.67
65738;BMP280;52478;51.844;6.582;2023-08-06T00:37:14;100188.28;;;24.65
65738;BMP280;52478;51.844;6.582;2023-08-06T00:39:41;100184.00;;;24.64
65738;BMP280;52478;51.844;6.582;2023-08-06T00:42:07;100179.72;;;24.63
65738;BMP280;52478;51.844;6.582;2023-08-06T00:44:35;100172.06;;;24.63
65738;BMP280;52478;51.844;6.582;2023-08-06T00:47:02;100181.75;;;24.62
65738;BMP280;52478;51.844;6.582;2023-08-06T00:49:29;100175.25;;;24.60
65738;BMP280;52478;51.844;6.582;2023-08-06T00:51:56;100172.44;;;24.60
65738;BMP280;52478;51.844;6.582;2023-08-06T00:54:23;100177.28;;;24.59
65738;BMP280;52478;51.844;6.582;2023-08-06T00:56:50;100176.75;;;24.61
65738;BMP280;52478;51.844;6.582;2023-08-06T00:59:16;100178.63;;;24.58
65738;BMP280;52478;51.844;6.582;2023-08-06T01:01:45;100174.31;;;24.57
65738;BMP280;52478;51.844;6.582;2023-08-06T01:04:12;100178.44;;;24.56
65738;BMP280;52478;51.844;6.582;2023-08-06T01:06:39;100172.06;;;24.56
65738;BMP280;52478;51.844;6.582;2023-08-06T01:09:19;100178.44;;;24.56
65738;BMP280;52478;51.844;6.582;2023-08-06T01:11:58;100171.31;;;24.55
65738;BMP280;52478;51.844;6.582;2023-08-06T01:14:30;100169.84;;;24.54
65738;BMP280;52478;51.844;6.582;2023-08-06T01:17:00;100170.59;;;24.55
65738;BMP280;52478;51.844;6.582;2023-08-06T01:19:28;100166.31;;;24.54
65738;BMP280;52478;51.844;6.582;2023-08-06T01:21:55;100150.81;;;24.53
65738;BMP280;52478;51.844;6.582;2023-08-06T01:24:22;100152.88;;;24.52
65738;BMP280;52478;51.844;6.582;2023-08-06T01:26:55;100150.06;;;24.52
65738;BMP280;52478;51.844;6.582;2023-08-06T01:29:28;100159.81;;;24.51
65738;BMP280;52478;51.844;6.582;2023-08-06T01:31:57;100147.84;;;24.51
65738;BMP280;52478;51.844;6.582;2023-08-06T01:34:28;100144.88;;;24.49
65738;BMP280;52478;51.844;6.582;2023-08-06T01:36:56;100142.06;;;24.49
65738;BMP280;52478;51.844;6.582;2023-08-06T01:39:24;100148.97;;;24.48
65738;BMP280;52478;51.844;6.582;2023-08-06T01:41:50;100144.09;;;24.48
65738;BMP280;52478;51.844;6.582;2023-08-06T01:44:17;100149.72;;;24.48
65738;BMP280;52478;51.844;6.582;2023-08-06T01:46:44;100143.38;;;24.48
65738;BMP280;52478;51.844;6.582;2023-08-06T01:49:10;100137.06;;;24.47
65738;BMP280;52478;51.844;6.582;2023-08-06T01:51:37;100141.13;;;24.46
65738;BMP280;52478;51.844;6.582;2023-08-06T01:54:04;100134.81;;;24.46
65738;BMP280;52478;51.844;6.582;2023-08-06T01:56:31;100146.72;;;24.46
65738;BMP280;52478;51.844;6.582;2023-08-06T01:58:57;100141.88;;;24.47
65738;BMP280;52478;51.844;6.582;2023-08-06T02:01:24;100134.81;;;24.46
65738;BMP280;52478;51.844;6.582;2023-08-06T02:03:50;100134.03;;;24.45
65738;BMP280;52478;51.844;6.582;2023-08-06T02:06:17;100137.59;;;24.46
65738;BMP280;52478;51.844;6.582;2023-08-06T02:08:43;100132.56;;;24.44
65738;BMP280;52478;51.844;6.582;2023-08-06T02:11:11;100136.84;;;24.45
65738;BMP280;52478;51.844;6.582;2023-08-06T02:13:38;100127.72;;;24.45
65738;BMP280;52478;51.844;6.582;2023-08-06T02:16:06;100126.22;;;24.44
65738;BMP280;52478;51.844;6.582;2023-08-06T02:18:33;100125.50;;;24.43
65738;BMP280;52478;51.844;6.582;2023-08-06T02:21:00;100133.13;;;24.43
65738;BMP280;52478;51.844;6.582;2023-08-06T02:23:27;100131.81;;;24.44
65738;BMP280;52478;51.844;6.582;2023-08-06T02:26:00;100141.53;;;24.43
65738;BMP280;52478;51.844;6.582;2023-08-06T02:28:28;100130.31;;;24.43
65738;BMP280;52478;51.844;6.582;2023-08-06T02:30:55;100128.84;;;24.42
65738;BMP280;52478;51.844;6.582;2023-08-06T02:33:22;100123.25;;;24.42
65738;BMP280;52478;51.844;6.582;2023-08-06T02:35:48;100126.03;;;24.42
65738;BMP280;52478;51.844;6.582;2023-08-06T02:38:15;100128.84;;;24.42
65738;BMP280;52478;51.844;6.582;2023-08-06T02:40:44;100116.19;;;24.41
65738;BMP280;52478;51.844;6.582;2023-08-06T02:43:11;100118.22;;;24.40
65738;BMP280;52478;51.844;6.582;2023-08-06T02:45:39;100116.19;;;24.41
65738;BMP280;52478;51.844;6.582;2023-08-06T02:48:06;100109.09;;;24.40
65738;BMP280;52478;51.844;6.582;2023-08-06T02:50:37;100114.69;;;24.40
65738;BMP280;52478;51.844;6.582;2023-08-06T02:53:04;100109.47;;;24.36
65738;BMP280;52478;51.844;6.582;2023-08-06T02:55:31;100104.78;;;24.39
65738;BMP280;52478;51.844;6.582;2023-08-06T02:57:57;100104.78;;;24.39
65738;BMP280;52478;51.844;6.582;2023-08-06T03:00:24;100101.97;;;24.39
65738;BMP280;52478;51.844;6.582;2023-08-06T03:02:52;100104.78;;;24.39
65738;BMP280;52478;51.844;6.582;2023-08-06T03:05:19;100095.66;;;24.38
65738;BMP280;52478;51.844;6.582;2023-08-06T03:07:45;100094.91;;;24.38
65738;BMP280;52478;51.844;6.582;2023-08-06T03:10:12;100094.91;;;24.38
65738;BMP280;52478;51.844;6.582;2023-08-06T03:12:38;100097.00;;;24.37
65738;BMP280;52478;51.844;6.582;2023-08-06T03:15:06;100086.50;;;24.38
65738;BMP280;52478;51.844;6.582;2023-08-06T03:17:32;100097.00;;;24.37
65738;BMP280;52478;51.844;6.582;2023-08-06T03:20:00;100080.75;;;24.36
65738;BMP280;52478;51.844;6.582;2023-08-06T03:22:27;100080.75;;;24.36
65738;BMP280;52478;51.844;6.582;2023-08-06T03:24:53;100089.31;;;24.38
65738;BMP280;52478;51.844;6.582;2023-08-06T03:27:20;100077.97;;;24.36
65738;BMP280;52478;51.844;6.582;2023-08-06T03:29:48;100080.00;;;24.35
65738;BMP280;52478;51.844;6.582;2023-08-06T03:32:15;100080.75;;;24.36
65738;BMP280;52478;51.844;6.582;2023-08-06T03:34:41;100085.59;;;24.35
65738;BMP280;52478;51.844;6.582;2023-08-06T03:37:09;100086.34;;;24.36
65738;BMP280;52478;51.844;6.582;2023-08-06T03:39:36;100084.84;;;24.35
65738;BMP280;52478;51.844;6.582;2023-08-06T03:42:03;100074.41;;;24.35
65738;BMP280;52478;51.844;6.582;2023-08-06T03:44:29;100079.22;;;24.35
65738;BMP280;52478;51.844;6.582;2023-08-06T03:46:56;100074.25;;;24.33
65738;BMP280;52478;51.844;6.582;2023-08-06T03:49:22;100079.22;;;24.35
65738;BMP280;52478;51.844;6.582;2023-08-06T03:51:49;100076.28;;;24.33
65738;BMP280;52478;51.844;6.582;2023-08-06T03:54:16;100079.84;;;24.33
65738;BMP280;52478;51.844;6.582;2023-08-06T03:56:43;100072.72;;;24.32
65738;BMP280;52478;51.844;6.582;2023-08-06T03:59:09;100069.19;;;24.32
65738;BMP280;52478;51.844;6.582;2023-08-06T04:01:36;100074.78;;;24.32
65738;BMP280;52478;51.844;6.582;2023-08-06T04:04:03;100074.03;;;24.31
65738;BMP280;52478;51.844;6.582;2023-08-06T04:06:29;100069.19;;;24.32
65738;BMP280;52478;51.844;6.582;2023-08-06T04:08:56;100073.31;;;24.31
65738;BMP280;52478;51.844;6.582;2023-08-06T04:11:24;100070.53;;;24.31
65738;BMP280;52478;51.844;6.582;2023-08-06T04:13:50;100062.84;;;24.31
65738;BMP280;52478;51.844;6.582;2023-08-06T04:16:17;100069.00;;;24.30
65738;BMP280;52478;51.844;6.582;2023-08-06T04:18:43;100066.22;;;24.30
65738;BMP280;52478;51.844;6.582;2023-08-06T04:21:11;100067.53;;;24.29
65738;BMP280;52478;51.844;6.582;2023-08-06T04:23:37;100064.94;;;24.31
65738;BMP280;52478;51.844;6.582;2023-08-06T04:26:04;100063.41;;;24.30
65738;BMP280;52478;51.844;6.582;2023-08-06T04:28:32;100062.13;;;24.31
65738;BMP280;52478;51.844;6.582;2023-08-06T04:30:58;100069.00;;;24.30
65738;BMP280;52478;51.844;6.582;2023-08-06T04:33:25;100071.06;;;24.29
65738;BMP280;52478;51.844;6.582;2023-08-06T04:35:55;100064.72;;;24.29
65738;BMP280;52478;51.844;6.582;2023-08-06T04:38:23;100073.13;;;24.29
65738;BMP280;52478;51.844;6.582;2023-08-06T04:40:50;100071.81;;;24.30
65738;BMP280;52478;51.844;6.582;2023-08-06T04:43:16;100077.22;;;24.28
65738;BMP280;52478;51.844;6.582;2023-08-06T04:45:47;100079.28;;;24.27
65738;BMP280;52478;51.844;6.582;2023-08-06T04:48:13;100074.59;;;24.30
65738;BMP280;52478;51.844;6.582;2023-08-06T04:50:43;100083.00;;;24.30
65738;BMP280;52478;51.844;6.582;2023-08-06T04:53:10;100085.78;;;24.30
65738;BMP280;52478;51.844;6.582;2023-08-06T04:55:36;100083.00;;;24.30
65738;BMP280;52478;51.844;6.582;2023-08-06T04:58:03;100081.50;;;24.29
65738;BMP280;52478;51.844;6.582;2023-08-06T05:00:29;100077.41;;;24.30
65738;BMP280;52478;51.844;6.582;2023-08-06T05:02:59;100081.72;;;24.31
65738;BMP280;52478;51.844;6.582;2023-08-06T05:05:26;100084.50;;;24.31
65738;BMP280;52478;51.844;6.582;2023-08-06T05:07:54;100077.06;;;24.26
65738;BMP280;52478;51.844;6.582;2023-08-06T05:10:21;100082.81;;;24.28
65738;BMP280;52478;51.844;6.582;2023-08-06T05:12:47;100085.59;;;24.28
65738;BMP280;52478;51.844;6.582;2023-08-06T05:15:14;100084.31;;;24.29
65738;BMP280;52478;51.844;6.582;2023-08-06T05:17:40;100085.59;;;24.28
65738;BMP280;52478;51.844;6.582;2023-08-06T05:20:10;100085.59;;;24.28
65738;BMP280;52478;51.844;6.582;2023-08-06T05:22:37;100085.59;;;24.28
65738;BMP280;52478;51.844;6.582;2023-08-06T05:25:04;100090.47;;;24.27
65738;BMP280;52478;51.844;6.582;2023-08-06T05:27:31;100088.41;;;24.28
65738;BMP280;52478;51.844;6.582;2023-08-06T05:29:58;100091.19;;;24.28
65738;BMP280;52478;51.844;6.582;2023-08-06T05:32:24;100095.34;;;24.27
65738;BMP280;52478;51.844;6.582;2023-08-06T05:34:51;100086.19;;;24.19
65738;BMP280;52478;51.844;6.582;2023-08-06T05:37:19;100103.72;;;24.27
65738;BMP280;52478;51.844;6.582;2023-08-06T05:39:45;100102.97;;;24.26
65738;BMP280;52478;51.844;6.582;2023-08-06T05:42:12;100101.66;;;24.27
65738;BMP280;52478;51.844;6.582;2023-08-06T05:44:38;100102.38;;;24.28
65738;BMP280;52478;51.844;6.582;2023-08-06T05:47:05;100104.44;;;24.27
65738;BMP280;52478;51.844;6.582;2023-08-06T05:49:31;100106.69;;;24.29
65738;BMP280;52478;51.844;6.582;2023-08-06T05:51:58;100115.06;;;24.29
65738;BMP280;52478;51.844;6.582;2023-08-06T05:54:26;100111.34;;;24.26
65738;BMP280;52478;51.844;6.582;2023-08-06T05:56:52;100133.34;;;24.30
65738;BMP280;52478;51.844;6.582;2023-08-06T05:59:19;100122.16;;;24.30
65738;BMP280;52478;51.844;6.582;2023-08-06T06:01:45;100120.88;;;24.31
65738;BMP280;52478;51.844;6.582;2023-08-06T06:04:12;100117.88;;;24.29
65738;BMP280;52478;51.844;6.582;2023-08-06T06:06:38;100125.53;;;24.28
65738;BMP280;52478;51.844;6.582;2023-08-06T06:09:06;100133.34;;;24.30
65738;BMP280;52478;51.844;6.582;2023-08-06T06:11:34;100127.75;;;24.30
65738;BMP280;52478;51.844;6.582;2023-08-06T06:14:01;100134.88;;;24.31
65738;BMP280;52478;51.844;6.582;2023-08-06T06:16:27;100137.81;;;24.33
65738;BMP280;52478;51.844;6.582;2023-08-06T06:18:54;100137.06;;;24.32
65738;BMP280;52478;51.844;6.582;2023-08-06T06:21:22;100133.53;;;24.32
65738;BMP280;52478;51.844;6.582;2023-08-06T06:23:49;100137.06;;;24.32
65738;BMP280;52478;51.844;6.582;2023-08-06T06:26:16;100132.78;;;24.31
65738;BMP280;52478;51.844;6.582;2023-08-06T06:28:44;100135.03;;;24.33
65738;BMP280;52478;51.844;6.582;2023-08-06T06:31:10;100137.06;;;24.32
65738;BMP280;52478;51.844;6.582;2023-08-06T06:33:37;100133.72;;;24.34
65738;BMP280;52478;51.844;6.582;2023-08-06T06:36:04;100142.50;;;24.30
65738;BMP280;52478;51.844;6.582;2023-08-06T06:38:32;100141.75;;;24.30
65738;BMP280;52478;51.844;6.582;2023-08-06T06:40:59;100141.38;;;24.26
65738;BMP280;52478;51.844;6.582;2023-08-06T06:43:25;100154.44;;;24.23
65738;BMP280;52478;51.844;6.582;2023-08-06T06:45:56;100152.41;;;24.09
65738;BMP280;52478;51.844;6.582;2023-08-06T06:48:23;100157.63;;;23.98
65738;BMP280;52478;51.844;6.582;2023-08-06T06:50:50;100155.78;;;23.93
65738;BMP280;52478;51.844;6.582;2023-08-06T06:53:16;100156.69;;;23.88
65738;BMP280;52478;51.844;6.582;2023-08-06T06:55:43;100161.72;;;23.82
65738;BMP280;52478;51.844;6.582;2023-08-06T06:58:09;100158.34;;;23.83
65738;BMP280;52478;51.844;6.582;2023-08-06T07:00:36;100154.25;;;23.84
65738;BMP280;52478;51.844;6.582;2023-08-06T07:03:04;100161.00;;;23.81
65738;BMP280;52478;51.844;6.582;2023-08-06T07:05:30;100154.81;;;23.75
65738;BMP280;52478;51.844;6.582;2023-08-06T07:07:57;100159.84;;;23.69
65738;BMP280;52478;51.844;6.582;2023-08-06T07:10:23;100160.22;;;23.73
65738;BMP280;52478;51.844;6.582;2023-08-06T07:12:50;100163.56;;;23.64
65738;BMP280;52478;51.844;6.582;2023-08-06T07:15:16;100164.69;;;23.61
65738;BMP280;52478;51.844;6.582;2023-08-06T07:17:43;100168.41;;;23.56
65738;BMP280;52478;51.844;6.582;2023-08-06T07:20:11;100168.41;;;23.56
65738;BMP280;52478;51.844;6.582;2023-08-06T07:22:38;100165.78;;;23.51
65738;BMP280;52478;51.844;6.582;2023-08-06T07:25:05;100170.63;;;23.50
65738;BMP280;52478;51.844;6.582;2023-08-06T07:27:31;100175.84;;;23.46
65738;BMP280;52478;51.844;6.582;2023-08-06T07:29:58;100172.84;;;23.44
65738;BMP280;52478;51.844;6.582;2023-08-06T07:32:24;100176.22;;;23.43
65738;BMP280;52478;51.844;6.582;2023-08-06T07:34:51;100181.06;;;23.50
65738;BMP280;52478;51.844;6.582;2023-08-06T07:37:23;100180.72;;;23.53
65738;BMP280;52478;51.844;6.582;2023-08-06T07:39:49;100185.16;;;23.56
65738;BMP280;52478;51.844;6.582;2023-08-06T07:42:16;100174.19;;;23.58
65738;BMP280;52478;51.844;6.582;2023-08-06T07:44:50;100176.97;;;23.58
65738;BMP280;52478;51.844;6.582;2023-08-06T07:47:16;100172.88;;;23.59
65738;BMP280;52478;51.844;6.582;2023-08-06T07:49:43;100179.97;;;23.60
65738;BMP280;52478;51.844;6.582;2023-08-06T07:52:09;100175.13;;;23.61
65738;BMP280;52478;51.844;6.582;2023-08-06T07:54:37;100181.44;;;23.61
65738;BMP280;52478;51.844;6.582;2023-08-06T07:57:05;100181.44;;;23.61
65738;BMP280;52478;51.844;6.582;2023-08-06T07:59:31;100183.13;;;23.64
65738;BMP280;52478;51.844;6.582;2023-08-06T08:01:58;100178.84;;;23.63
65738;BMP280;52478;51.844;6.582;2023-08-06T08:04:24;100179.59;;;23.64
65738;BMP280;52478;51.844;6.582;2023-08-06T08:06:51;100171.78;;;23.62
65738;BMP280;52478;51.844;6.582;2023-08-06T08:09:17;100177.34;;;23.62
65738;BMP280;52478;51.844;6.582;2023-08-06T08:11:45;100179.38;;;23.62
65738;BMP280;52478;51.844;6.582;2023-08-06T08:14:12;100188.53;;;23.62
65738;BMP280;52478;51.844;6.582;2023-08-06T08:16:39;100186.31;;;23.61
65738;BMP280;52478;51.844;6.582;2023-08-06T08:19:05;100191.31;;;23.62
65738;BMP280;52478;51.844;6.582;2023-08-06T08:21:31;100186.31;;;23.61
65738;BMP280;52478;51.844;6.582;2023-08-06T08:23:59;100182.19;;;23.62
65738;BMP280;52478;51.844;6.582;2023-08-06T08:26:26;100190.38;;;23.60
65738;BMP280;52478;51.844;6.582;2023-08-06T08:28:55;100191.31;;;23.62
65738;BMP280;52478;51.844;6.582;2023-08-06T08:31:22;100197.09;;;23.64
65738;BMP280;52478;51.844;6.582;2023-08-06T08:33:48;100194.13;;;23.62
65738;BMP280;52478;51.844;6.582;2023-08-06T08:36:15;100188.88;;;23.66
65738;BMP280;52478;51.844;6.582;2023-08-06T08:38:41;100189.66;;;23.67
65738;BMP280;52478;51.844;6.582;2023-08-06T08:41:09;100198.78;;;23.67
65738;BMP280;52478;51.844;6.582;2023-08-06T08:43:36;100192.63;;;23.69
65738;BMP280;52478;51.844;6.582;2023-08-06T08:46:04;100194.69;;;23.68
65738;BMP280;52478;51.844;6.582;2023-08-06T08:48:31;100202.31;;;23.68
65738;BMP280;52478;51.844;6.582;2023-08-06T08:50:58;100190.41;;;23.67
65738;BMP280;52478;51.844;6.582;2023-08-06T08:53:26;100203.44;;;23.72
65738;BMP280;52478;51.844;6.582;2023-08-06T08:55:54;100202.53;;;23.77
65738;BMP280;52478;51.844;6.582;2023-08-06T08:58:21;100196.03;;;23.82
65738;BMP280;52478;51.844;6.582;2023-08-06T09:00:48;100191.13;;;23.83
65738;BMP280;52478;51.844;6.582;2023-08-06T09:03:16;100199.53;;;23.83
65738;BMP280;52478;51.844;6.582;2023-08-06T09:05:44;100190.03;;;23.78
65738;BMP280;52478;51.844;6.582;2023-08-06T09:08:13;100201.22;;;23.78
65738;BMP280;52478;51.844;6.582;2023-08-06T09:10:42;100198.97;;;23.77
65738;BMP280;52478;51.844;6.582;2023-08-06T09:13:09;100209.41;;;23.76
65738;BMP280;52478;51.844;6.582;2023-08-06T09:15:37;100206.25;;;23.80
65738;BMP280;52478;51.844;6.582;2023-08-06T09:18:09;100209.78;;;23.80
65738;BMP280;52478;51.844;6.582;2023-08-06T09:20:37;100211.28;;;23.81
65738;BMP280;52478;51.844;6.582;2023-08-06T09:23:07;100207.19;;;23.82
65738;BMP280;52478;51.844;6.582;2023-08-06T09:25:33;100204.56;;;23.84
65738;BMP280;52478;51.844;6.582;2023-08-06T09:28:02;100206.81;;;23.86
65738;BMP280;52478;51.844;6.582;2023-08-06T09:30:30;100212.41;;;23.86
65738;BMP280;52478;51.844;6.582;2023-08-06T09:32:57;100213.16;;;23.86
65738;BMP280;52478;51.844;6.582;2023-08-06T09:35:24;100217.63;;;23.89
65738;BMP280;52478;51.844;6.582;2023-08-06T09:37:52;100215.03;;;23.91
65738;BMP280;52478;51.844;6.582;2023-08-06T09:40:28;100216.53;;;23.92
65738;BMP280;52478;51.844;6.582;2023-08-06T09:42:55;100222.88;;;23.93
65738;BMP280;52478;51.844;6.582;2023-08-06T09:45:22;100215.41;;;23.95
65738;BMP280;52478;51.844;6.582;2023-08-06T09:47:49;100216.69;;;23.87
65738;BMP280;52478;51.844;6.582;2023-08-06T09:50:16;100225.81;;;23.87
65738;BMP280;52478;51.844;6.582;2023-08-06T09:52:43;100219.84;;;23.91
65738;BMP280;52478;51.844;6.582;2023-08-06T09:55:12;100218.75;;;23.94
65738;BMP280;52478;51.844;6.582;2023-08-06T09:57:39;100228.09;;;23.96
65738;BMP280;52478;51.844;6.582;2023-08-06T10:00:07;100221.72;;;23.96
65738;BMP280;52478;51.844;6.582;2023-08-06T10:02:35;100224.72;;;23.98
65738;BMP280;52478;51.844;6.582;2023-08-06T10:05:02;100223.97;;;23.97
65738;BMP280;52478;51.844;6.582;2023-08-06T10:07:29;100221.38;;;23.99
65738;BMP280;52478;51.844;6.582;2023-08-06T10:09:56;100220.25;;;24.02
65738;BMP280;52478;51.844;6.582;2023-08-06T10:12:25;100227.91;;;24.02
65738;BMP280;52478;51.844;6.582;2023-08-06T10:14:54;100223.22;;;24.04
65738;BMP280;52478;51.844;6.582;2023-08-06T10:17:22;100226.59;;;24.03
65738;BMP280;52478;51.844;6.582;2023-08-06T10:19:50;100215.56;;;24.05
65738;BMP280;52478;51.844;6.582;2023-08-06T10:22:20;100223.63;;;24.08
65738;BMP280;52478;51.844;6.582;2023-08-06T10:24:50;100218.75;;;24.09
65738;BMP280;52478;51.844;6.582;2023-08-06T10:27:22;100216.88;;;24.11
65738;BMP280;52478;51.844;6.582;2023-08-06T10:29:50;100218.38;;;24.12
65738;BMP280;52478;51.844;6.582;2023-08-06T10:32:16;100219.91;;;24.13
65738;BMP280;52478;51.844;6.582;2023-08-06T10:34:54;100222.84;;;24.15
65738;BMP280;52478;51.844;6.582;2023-08-06T10:37:21;100225.09;;;24.17
65738;BMP280;52478;51.844;6.582;2023-08-06T10:39:49;100235.53;;;24.16
65738;BMP280;52478;51.844;6.582;2023-08-06T10:42:20;100231.09;;;24.13
65738;BMP280;52478;51.844;6.582;2023-08-06T10:45:14;100229.56;;;24.12
65738;BMP280;52478;51.844;6.582;2023-08-06T10:47:41;100226.59;;;24.10
65738;BMP280;52478;51.844;6.582;2023-08-06T10:50:10;100242.25;;;24.06
65738;BMP280;52478;51.844;6.582;2023-08-06T10:52:37;100239.47;;;24.06
65738;BMP280;52478;51.844;6.582;2023-08-06T10:55:04;100247.25;;;24.07
65738;BMP280;52478;51.844;6.582;2023-08-06T10:57:31;100237.59;;;24.08
65738;BMP280;52478;51.844;6.582;2023-08-06T10:59:57;100239.81;;;24.10
65738;BMP280;52478;51.844;6.582;2023-08-06T11:02:25;100236.47;;;24.11
65738;BMP280;52478;51.844;6.582;2023-08-06T11:04:52;100241.50;;;24.13
65738;BMP280;52478;51.844;6.582;2023-08-06T11:07:18;100241.66;;;24.15
65738;BMP280;52478;51.844;6.582;2023-08-06T11:09:50;100243.91;;;24.16
65738;BMP280;52478;51.844;6.582;2023-08-06T11:12:18;100232.94;;;24.18
65738;BMP280;52478;51.844;6.582;2023-08-06T11:14:49;100234.41;;;24.19
65738;BMP280;52478;51.844;6.582;2023-08-06T11:17:16;100221.94;;;24.20
65738;BMP280;52478;51.844;6.582;2023-08-06T11:19:44;100226.41;;;24.23
65738;BMP280;52478;51.844;6.582;2023-08-06T11:22:11;100224.53;;;24.25
65738;BMP280;52478;51.844;6.582;2023-08-06T11:24:38;100228.81;;;24.26
65738;BMP280;52478;51.844;6.582;2023-08-06T11:27:11;100227.72;;;24.29
65738;BMP280;52478;51.844;6.582;2023-08-06T11:29:37;100232.75;;;24.31
65738;BMP280;52478;51.844;6.582;2023-08-06T11:32:04;100237.03;;;24.32
65738;BMP280;52478;51.844;6.582;2023-08-06T11:34:31;100236.25;;;24.31
65738;BMP280;52478;51.844;6.582;2023-08-06T11:36:59;100246.91;;;24.33
65738;BMP280;52478;51.844;6.582;2023-08-06T11:39:25;100253.25;;;24.33
65738;BMP280;52478;51.844;6.582;2023-08-06T11:41:52;100263.53;;;24.31
65738;BMP280;52478;51.844;6.582;2023-08-06T11:44:19;100260.34;;;24.27
65738;BMP280;52478;51.844;6.582;2023-08-06T11:46:52;100258.66;;;24.24
65738;BMP280;52478;51.844;6.582;2023-08-06T11:49:21;100269.84;;;24.24
65738;BMP280;52478;51.844;6.582;2023-08-06T11:52:10;100266.09;;;24.22
65738;BMP280;52478;51.844;6.582;2023-08-06T11:54:37;100270.94;;;24.21
65738;BMP280;52478;51.844;6.582;2023-08-06T11:57:05;100279.16;;;24.19
65738;BMP280;52478;51.844;6.582;2023-08-06T11:59:31;100263.69;;;24.18
65738;BMP280;52478;51.844;6.582;2023-08-06T12:02:00;100263.50;;;24.16
65738;BMP280;52478;51.844;6.582;2023-08-06T12:04:26;100284.94;;;24.14
65738;BMP280;52478;51.844;6.582;2023-08-06T12:06:53;100281.41;;;24.13
65738;BMP280;52478;51.844;6.582;2023-08-06T12:09:21;100285.50;;;24.12
65738;BMP280;52478;51.844;6.582;2023-08-06T12:11:47;100289.97;;;24.08
65738;BMP280;52478;51.844;6.582;2023-08-06T12:14:14;100297.41;;;24.05
65738;BMP280;52478;51.844;6.582;2023-08-06T12:16:40;100310.47;;;23.95
65738;BMP280;52478;51.844;6.582;2023-08-06T12:19:07;100316.06;;;23.95
65738;BMP280;52478;51.844;6.582;2023-08-06T12:21:33;100310.47;;;24.03
65738;BMP280;52478;51.844;6.582;2023-08-06T12:24:00;100310.50;;;24.10
65738;BMP280;52478;51.844;6.582;2023-08-06T12:26:28;100308.06;;;24.14
65738;BMP280;52478;51.844;6.582;2023-08-06T12:28:54;100323.16;;;24.19
65738;BMP280;52478;51.844;6.582;2023-08-06T12:31:22;100320.59;;;24.21
65738;BMP280;52478;51.844;6.582;2023-08-06T12:33:49;100321.50;;;24.23
65738;BMP280;52478;51.844;6.582;2023-08-06T12:36:15;100327.25;;;24.25
65738;BMP280;52478;51.844;6.582;2023-08-06T12:38:42;100323.94;;;24.26
65738;BMP280;52478;51.844;6.582;2023-08-06T12:41:09;100319.09;;;24.27
65738;BMP280;52478;51.844;6.582;2023-08-06T12:43:37;100329.16;;;24.30
65738;BMP280;52478;51.844;6.582;2023-08-06T12:46:04;100336.97;;;24.31
65738;BMP280;52478;51.844;6.582;2023-08-06T12:48:31;100339.22;;;24.33
65738;BMP280;52478;51.844;6.582;2023-08-06T12:50:57;100340.72;;;24.34
65738;BMP280;52478;51.844;6.582;2023-08-06T12:53:24;100336.59;;;24.35
65738;BMP280;52478;51.844;6.582;2023-08-06T12:55:51;100350.03;;;24.36
65738;BMP280;52478;51.844;6.582;2023-08-06T12:58:17;100356.41;;;24.37
65738;BMP280;52478;51.844;6.582;2023-08-06T13:00:45;100357.84;;;24.38
65738;BMP280;52478;51.844;6.582;2023-08-06T13:03:12;100360.13;;;24.39
65738;BMP280;52478;51.844;6.582;2023-08-06T13:05:39;100356.03;;;24.40
65738;BMP280;52478;51.844;6.582;2023-08-06T13:08:05;100359.56;;;24.41
65738;BMP280;52478;51.844;6.582;2023-08-06T13:10:32;100363.84;;;24.42
65738;BMP280;52478;51.844;6.582;2023-08-06T13:12:58;100376.53;;;24.43
65738;BMP280;52478;51.844;6.582;2023-08-06T13:15:25;100385.13;;;24.45
65738;BMP280;52478;51.844;6.582;2023-08-06T13:17:53;100395.56;;;24.44
65738;BMP280;52478;51.844;6.582;2023-08-06T13:20:19;100378.22;;;24.46
65738;BMP280;52478;51.844;6.582;2023-08-06T13:22:46;100393.13;;;24.48
65738;BMP280;52478;51.844;6.582;2023-08-06T13:25:15;100391.84;;;24.49
65738;BMP280;52478;51.844;6.582;2023-08-06T13:27:42;100394.84;;;24.51
65738;BMP280;52478;51.844;6.582;2023-08-06T13:30:10;100384.38;;;24.52
65738;BMP280;52478;51.844;6.582;2023-08-06T13:32:36;100391.47;;;24.53
65738;BMP280;52478;51.844;6.582;2023-08-06T13:35:05;100393.72;;;24.54
65738;BMP280;52478;51.844;6.582;2023-08-06T13:37:31;100389.59;;;24.55
65738;BMP280;52478;51.844;6.582;2023-08-06T13:39:58;100391.84;;;24.57
65738;BMP280;52478;51.844;6.582;2023-08-06T13:42:24;100398.19;;;24.57
65738;BMP280;52478;51.844;6.582;2023-08-06T13:44:51;100397.63;;;24.59
65738;BMP280;52478;51.844;6.582;2023-08-06T13:47:18;100415.38;;;24.61
65738;BMP280;52478;51.844;6.582;2023-08-06T13:49:44;100409.03;;;24.61
65738;BMP280;52478;51.844;6.582;2023-08-06T13:52:12;100409.03;;;24.61
65738;BMP280;52478;51.844;6.582;2023-08-06T13:54:38;100415.38;;;24.61
65738;BMP280;52478;51.844;6.582;2023-08-06T13:57:05;100416.09;;;24.62